sensor_id;sensor_type;location;lat;lon;timestamp;temperature;humidity
17425;DHT22;8830;50.978;5.058;2022-10-16T00:00:38;14.00;99.90
17425;DHT22;8830;50.978;5.058;2022-10-16T00:03:13;14.00;99.90
17425;DHT22;8830;50.978;5.058;2022-10-16T00:05:48;13.90;99.90
17425;DHT22;8830;50.978;5.058;2022-10-16T00:08:18;14.40;99.90
17425;DHT22;8830;50.978;5.058;2022-10-16T00:13:16;13.70;99.90
17425;DHT22;8830;50.978;5.058;2022-10-16T00:15:52;13.70;99.90
17425;DHT22;8830;50.978;5.058;2022-10-16T00:18:41;13.70;99.90
17425;DHT22;8830;50.978;5.058;2022-10-16T00:21:10;13.70;99.90
17425;DHT22;8830;50.978;5.058;2022-10-16T00:23:38;13.70;99.90
17425;DHT22;8830;50.978;5.058;2022-10-16T00:26:13;13.50;99.90
17425;DHT22;8830;50.978;5.058;2022-10-16T00:28:49;13.60;99.90
17425;DHT22;8830;50.978;5.058;2022-10-16T00:31:21;13.70;99.90
17425;DHT22;8830;50.978;5.058;2022-10-16T00:33:51;13.60;99.90
17425;DHT22;8830;50.978;5.058;2022-10-16T00:36:21;13.60;99.90
17425;DHT22;8830;50.978;5.058;2022-10-16T00:38:57;13.60;99.90
17425;DHT22;8830;50.978;5.058;2022-10-16T00:41:28;13.60;99.90
17425;DHT22;8830;50.978;5.058;2022-10-16T00:47:17;13.50;99.90
17425;DHT22;8830;50.978;5.058;2022-10-16T00:49:50;13.40;99.90
17425;DHT22;8830;50.978;5.058;2022-10-16T00:52:24;13.40;99.90
17425;DHT22;8830;50.978;5.058;2022-10-16T00:55:00;13.40;99.90
17425;DHT22;8830;50.978;5.058;2022-10-16T00:57:29;13.30;99.90
17425;DHT22;8830;50.978;5.058;2022-10-16T00:59:57;13.30;99.90
17425;DHT22;8830;50.978;5.058;2022-10-16T01:02:37;13.30;99.90
17425;DHT22;8830;50.978;5.058;2022-10-16T01:05:07;13.30;99.90
17425;DHT22;8830;50.978;5.058;2022-10-16T01:07:43;13.20;99.90
17425;DHT22;8830;50.978;5.058;2022-10-16T01:10:26;13.20;99.90
17425;DHT22;8830;50.978;5.058;2022-10-16T01:13:10;13.20;99.90
17425;DHT22;8830;50.978;5.058;2022-10-16T01:15:48;13.20;99.90
17425;DHT22;8830;50.978;5.058;2022-10-16T01:18:32;13.20;99.90
17425;DHT22;8830;50.978;5.058;2022-10-16T01:21:17;13.20;99.90
17425;DHT22;8830;50.978;5.058;2022-10-16T01:23:56;13.20;99.90
17425;DHT22;8830;50.978;5.058;2022-10-16T01:26:42;13.10;99.90
17425;DHT22;8830;50.978;5.058;2022-10-16T01:29:23;13.10;99.90
17425;DHT22;8830;50.978;5.058;2022-10-16T01:32:02;13.00;99.90
17425;DHT22;8830;50.978;5.058;2022-10-16T01:34:44;13.00;99.90
17425;DHT22;8830;50.978;5.058;2022-10-16T01:37:27;13.00;99.90
17425;DHT22;8830;50.978;5.058;2022-10-16T01:40:21;13.00;99.90
17425;DHT22;8830;50.978;5.058;2022-10-16T01:43:04;12.90;99.90
17425;DHT22;8830;50.978;5.058;2022-10-16T01:45:46;13.00;99.90
17425;DHT22;8830;50.978;5.058;2022-10-16T01:48:18;13.00;99.90
17425;DHT22;8830;50.978;5.058;2022-10-16T01:50:52;12.90;99.90
17425;DHT22;8830;50.978;5.058;2022-10-16T01:53:22;12.90;99.90
17425;DHT22;8830;50.978;5.058;2022-10-16T01:55:55;13.10;99.90
17425;DHT22;8830;50.978;5.058;2022-10-16T01:58:26;13.10;99.90
17425;DHT22;8830;50.978;5.058;2022-10-16T02:00:58;13.10;99.90
17425;DHT22;8830;50.978;5.058;2022-10-16T02:03:26;13.10;99.90
17425;DHT22;8830;50.978;5.058;2022-10-16T02:06:01;13.20;99.90
17425;DHT22;8830;50.978;5.058;2022-10-16T02:08:31;13.20;99.90
17425;DHT22;8830;50.978;5.058;2022-10-16T02:11:01;13.20;99.90
17425;DHT22;8830;50.978;5.058;2022-10-16T02:13:39;13.20;99.90
17425;DHT22;8830;50.978;5.058;2022-10-16T02:16:10;13.20;99.90
17425;DHT22;8830;50.978;5.058;2022-10-16T02:18:39;13.20;99.90
17425;DHT22;8830;50.978;5.058;2022-10-16T02:21:13;13.20;99.90
17425;DHT22;8830;50.978;5.058;2022-10-16T02:23:57;13.20;99.90
17425;DHT22;8830;50.978;5.058;2022-10-16T02:26:52;13.20;99.90
17425;DHT22;8830;50.978;5.058;2022-10-16T02:29:26;13.20;99.90
17425;DHT22;8830;50.978;5.058;2022-10-16T02:32:00;13.20;99.90
17425;DHT22;8830;50.978;5.058;2022-10-16T02:34:39;13.10;99.90
17425;DHT22;8830;50.978;5.058;2022-10-16T02:37:09;13.20;99.90
17425;DHT22;8830;50.978;5.058;2022-10-16T02:39:38;13.20;99.90
17425;DHT22;8830;50.978;5.058;2022-10-16T02:42:12;13.20;99.90
17425;DHT22;8830;50.978;5.058;2022-10-16T02:44:42;13.20;99.90
17425;DHT22;8830;50.978;5.058;2022-10-16T02:47:12;13.20;99.90
17425;DHT22;8830;50.978;5.058;2022-10-16T02:49:40;13.20;99.90
17425;DHT22;8830;50.978;5.058;2022-10-16T02:52:08;13.20;99.90
17425;DHT22;8830;50.978;5.058;2022-10-16T02:54:35;13.10;99.90
17425;DHT22;8830;50.978;5.058;2022-10-16T02:57:05;13.10;99.90
17425;DHT22;8830;50.978;5.058;2022-10-16T02:59:34;13.20;99.90
17425;DHT22;8830;50.978;5.058;2022-10-16T03:02:05;13.20;99.90
17425;DHT22;8830;50.978;5.058;2022-10-16T03:04:40;13.10;99.90
17425;DHT22;8830;50.978;5.058;2022-10-16T03:07:19;13.00;99.90
17425;DHT22;8830;50.978;5.058;2022-10-16T03:10:01;13.10;99.90
17425;DHT22;8830;50.978;5.058;2022-10-16T03:12:31;13.00;99.90
17425;DHT22;8830;50.978;5.058;2022-10-16T03:15:01;13.00;99.90
17425;DHT22;8830;50.978;5.058;2022-10-16T03:17:31;13.00;99.90
17425;DHT22;8830;50.978;5.058;2022-10-16T03:20:17;13.00;99.90
17425;DHT22;8830;50.978;5.058;2022-10-16T03:22:46;13.00;99.90
17425;DHT22;8830;50.978;5.058;2022-10-16T03:25:15;13.00;99.90
17425;DHT22;8830;50.978;5.058;2022-10-16T03:27:50;13.00;99.90
17425;DHT22;8830;50.978;5.058;2022-10-16T03:30:23;13.00;99.90
17425;DHT22;8830;50.978;5.058;2022-10-16T03:33:00;13.00;99.90
17425;DHT22;8830;50.978;5.058;2022-10-16T03:35:36;13.00;99.90
17425;DHT22;8830;50.978;5.058;2022-10-16T03:38:08;13.00;99.90
17425;DHT22;8830;50.978;5.058;2022-10-16T03:40:41;13.00;99.90
17425;DHT22;8830;50.978;5.058;2022-10-16T03:43:10;13.00;99.90
17425;DHT22;8830;50.978;5.058;2022-10-16T03:45:39;13.00;99.90
17425;DHT22;8830;50.978;5.058;2022-10-16T03:48:08;13.00;99.90
17425;DHT22;8830;50.978;5.058;2022-10-16T03:50:45;13.00;99.90
17425;DHT22;8830;50.978;5.058;2022-10-16T03:53:16;13.00;99.90
17425;DHT22;8830;50.978;5.058;2022-10-16T03:55:52;13.10;99.90
17425;DHT22;8830;50.978;5.058;2022-10-16T03:58:23;13.10;99.90
17425;DHT22;8830;50.978;5.058;2022-10-16T04:00:57;13.00;99.90
17425;DHT22;8830;50.978;5.058;2022-10-16T04:03:26;13.00;99.90
17425;DHT22;8830;50.978;5.058;2022-10-16T04:06:04;13.00;99.90
17425;DHT22;8830;50.978;5.058;2022-10-16T04:08:34;13.00;99.90
17425;DHT22;8830;50.978;5.058;2022-10-16T04:11:12;13.10;99.90
17425;DHT22;8830;50.978;5.058;2022-10-16T04:13:39;13.00;99.90
17425;DHT22;8830;50.978;5.058;2022-10-16T04:16:12;13.00;99.90
17425;DHT22;8830;50.978;5.058;2022-10-16T04:18:40;13.10;99.90
17425;DHT22;8830;50.978;5.058;2022-10-16T04:21:10;13.10;99.90
17425;DHT22;8830;50.978;5.058;2022-10-16T04:23:45;13.10;99.90
17425;DHT22;8830;50.978;5.058;2022-10-16T04:26:29;13.10;99.90
17425;DHT22;8830;50.978;5.058;2022-10-16T04:28:59;13.10;99.90
17425;DHT22;8830;50.978;5.058;2022-10-16T04:31:30;13.10;99.90
17425;DHT22;8830;50.978;5.058;2022-10-16T04:34:01;13.20;99.90
17425;DHT22;8830;50.978;5.058;2022-10-16T04:36:43;13.10;99.90
17425;DHT22;8830;50.978;5.058;2022-10-16T04:39:10;13.30;99.90
17425;DHT22;8830;50.978;5.058;2022-10-16T04:41:49;13.20;99.90
17425;DHT22;8830;50.978;5.058;2022-10-16T04:44:24;13.20;99.90
17425;DHT22;8830;50.978;5.058;2022-10-16T04:46:55;13.20;99.90
17425;DHT22;8830;50.978;5.058;2022-10-16T04:49:26;13.20;99.90
17425;DHT22;8830;50.978;5.058;2022-10-16T04:52:13;13.10;99.90
17425;DHT22;8830;50.978;5.058;2022-10-16T04:54:53;13.10;99.90
17425;DHT22;8830;50.978;5.058;2022-10-16T04:57:32;13.10;99.90
17425;DHT22;8830;50.978;5.058;2022-10-16T05:00:03;13.10;99.90
17425;DHT22;8830;50.978;5.058;2022-10-16T05:02:36;13.00;99.90
17425;DHT22;8830;50.978;5.058;2022-10-16T05:05:41;13.00;99.90
17425;DHT22;8830;50.978;5.058;2022-10-16T05:08:33;12.90;99.90
17425;DHT22;8830;50.978;5.058;2022-10-16T05:11:04;12.90;99.90
17425;DHT22;8830;50.978;5.058;2022-10-16T05:13:45;12.80;99.90
17425;DHT22;8830;50.978;5.058;2022-10-16T05:16:16;12.80;99.90
17425;DHT22;8830;50.978;5.058;2022-10-16T05:18:46;12.80;99.90
17425;DHT22;8830;50.978;5.058;2022-10-16T05:21:32;12.80;99.90
17425;DHT22;8830;50.978;5.058;2022-10-16T05:24:05;12.80;99.90
17425;DHT22;8830;50.978;5.058;2022-10-16T05:26:44;12.70;99.90
17425;DHT22;8830;50.978;5.058;2022-10-16T05:29:24;12.70;99.90
17425;DHT22;8830;50.978;5.058;2022-10-16T05:31:54;12.60;99.90
17425;DHT22;8830;50.978;5.058;2022-10-16T05:34:35;12.60;99.90
17425;DHT22;8830;50.978;5.058;2022-10-16T05:37:04;12.60;99.90
17425;DHT22;8830;50.978;5.058;2022-10-16T05:39:40;12.60;99.90
17425;DHT22;8830;50.978;5.058;2022-10-16T05:42:13;12.60;99.90
17425;DHT22;8830;50.978;5.058;2022-10-16T05:44:58;12.60;99.90
17425;DHT22;8830;50.978;5.058;2022-10-16T05:47:25;12.70;99.90
17425;DHT22;8830;50.978;5.058;2022-10-16T05:50:02;12.70;99.90
17425;DHT22;8830;50.978;5.058;2022-10-16T05:52:31;12.70;99.90
17425;DHT22;8830;50.978;5.058;2022-10-16T05:55:13;12.70;99.90
17425;DHT22;8830;50.978;5.058;2022-10-16T05:57:43;12.70;99.90
17425;DHT22;8830;50.978;5.058;2022-10-16T06:00:15;12.60;99.90
17425;DHT22;8830;50.978;5.058;2022-10-16T06:02:43;12.50;99.90
17425;DHT22;8830;50.978;5.058;2022-10-16T06:05:53;12.60;99.90
17425;DHT22;8830;50.978;5.058;2022-10-16T06:09:22;12.60;99.90
17425;DHT22;8830;50.978;5.058;2022-10-16T06:12:29;14.40;99.90
17425;DHT22;8830;50.978;5.058;2022-10-16T06:15:44;12.60;99.90
17425;DHT22;8830;50.978;5.058;2022-10-16T06:18:46;12.50;99.90
17425;DHT22;8830;50.978;5.058;2022-10-16T06:22:11;13.00;99.90
17425;DHT22;8830;50.978;5.058;2022-10-16T06:25:17;12.50;99.90
17425;DHT22;8830;50.978;5.058;2022-10-16T07:09:08;19.00;99.90
17425;DHT22;8830;50.978;5.058;2022-10-16T07:12:03;18.10;99.90
17425;DHT22;8830;50.978;5.058;2022-10-16T07:14:45;18.30;99.90
17425;DHT22;8830;50.978;5.058;2022-10-16T07:17:31;18.70;99.90
17425;DHT22;8830;50.978;5.058;2022-10-16T07:20:07;18.40;99.90
17425;DHT22;8830;50.978;5.058;2022-10-16T07:22:43;18.90;99.90
17425;DHT22;8830;50.978;5.058;2022-10-16T07:25:32;19.20;99.90
17425;DHT22;8830;50.978;5.058;2022-10-16T07:28:10;20.20;99.90
17425;DHT22;8830;50.978;5.058;2022-10-16T07:33:15;20.90;99.90
17425;DHT22;8830;50.978;5.058;2022-10-16T07:35:49;21.10;99.90
17425;DHT22;8830;50.978;5.058;2022-10-16T07:38:21;21.40;99.90
17425;DHT22;8830;50.978;5.058;2022-10-16T07:41:02;21.90;99.90
17425;DHT22;8830;50.978;5.058;2022-10-16T07:44:05;22.10;99.90
17425;DHT22;8830;50.978;5.058;2022-10-16T07:46:51;22.00;99.90
17425;DHT22;8830;50.978;5.058;2022-10-16T07:49:34;22.00;99.90
17425;DHT22;8830;50.978;5.058;2022-10-16T07:52:29;20.60;99.90
17425;DHT22;8830;50.978;5.058;2022-10-16T07:55:20;20.00;99.90
17425;DHT22;8830;50.978;5.058;2022-10-16T07:58:12;19.80;99.90
17425;DHT22;8830;50.978;5.058;2022-10-16T08:00:42;20.40;99.90
17425;DHT22;8830;50.978;5.058;2022-10-16T08:06:46;21.00;99.90
17425;DHT22;8830;50.978;5.058;2022-10-16T08:57:00;17.30;99.90
17425;DHT22;8830;50.978;5.058;2022-10-16T09:00:23;17.60;99.90
17425;DHT22;8830;50.978;5.058;2022-10-16T11:25:35;19.30;99.90
17425;DHT22;8830;50.978;5.058;2022-10-16T11:45:24;19.00;99.90
17425;DHT22;8830;50.978;5.058;2022-10-16T11:52:03;19.40;99.90
17425;DHT22;8830;50.978;5.058;2022-10-16T11:55:18;19.60;99.90
17425;DHT22;8830;50.978;5.058;2022-10-16T11:58:25;19.30;99.90
17425;DHT22;8830;50.978;5.058;2022-10-16T12:59:40;19.80;99.90
17425;DHT22;8830;50.978;5.058;2022-10-16T13:03:04;20.10;99.90
17425;DHT22;8830;50.978;5.058;2022-10-16T13:22:51;18.90;99.90
17425;DHT22;8830;50.978;5.058;2022-10-16T13:33:03;19.90;99.90
17425;DHT22;8830;50.978;5.058;2022-10-16T13:36:29;20.70;99.90
17425;DHT22;8830;50.978;5.058;2022-10-16T13:43:27;20.10;99.90
17425;DHT22;8830;50.978;5.058;2022-10-16T13:46:17;19.50;99.90
17425;DHT22;8830;50.978;5.058;2022-10-16T13:49:22;20.10;99.90
17425;DHT22;8830;50.978;5.058;2022-10-16T13:52:22;19.80;99.90
17425;DHT22;8830;50.978;5.058;2022-10-16T14:02:24;19.60;99.90
17425;DHT22;8830;50.978;5.058;2022-10-16T14:08:40;20.10;99.90
17425;DHT22;8830;50.978;5.058;2022-10-16T14:11:53;19.80;99.90
17425;DHT22;8830;50.978;5.058;2022-10-16T14:15:15;19.60;99.90
17425;DHT22;8830;50.978;5.058;2022-10-16T15:13:41;19.20;99.90
17425;DHT22;8830;50.978;5.058;2022-10-16T15:23:54;18.90;99.90
17425;DHT22;8830;50.978;5.058;2022-10-16T15:38:08;18.70;99.90
17425;DHT22;8830;50.978;5.058;2022-10-16T15:41:08;18.60;99.90
17425;DHT22;8830;50.978;5.058;2022-10-16T15:44:30;18.60;99.90
17425;DHT22;8830;50.978;5.058;2022-10-16T15:47:15;18.80;99.90
17425;DHT22;8830;50.978;5.058;2022-10-16T15:50:14;18.50;99.90
17425;DHT22;8830;50.978;5.058;2022-10-16T15:53:15;18.40;99.90
17425;DHT22;8830;50.978;5.058;2022-10-16T15:56:04;18.30;99.90
17425;DHT22;8830;50.978;5.058;2022-10-16T15:59:13;18.30;99.90
17425;DHT22;8830;50.978;5.058;2022-10-16T16:08:50;18.10;99.90
17425;DHT22;8830;50.978;5.058;2022-10-16T16:12:07;18.80;99.90
17425;DHT22;8830;50.978;5.058;2022-10-16T16:14:52;17.90;99.90
17425;DHT22;8830;50.978;5.058;2022-10-16T16:17:51;17.80;99.90
17425;DHT22;8830;50.978;5.058;2022-10-16T16:23:59;17.70;99.90
17425;DHT22;8830;50.978;5.058;2022-10-16T16:30:41;17.60;99.90
17425;DHT22;8830;50.978;5.058;2022-10-16T16:33:27;17.60;99.90
17425;DHT22;8830;50.978;5.058;2022-10-16T16:36:10;17.40;99.90
17425;DHT22;8830;50.978;5.058;2022-10-16T16:38:44;17.40;99.90
17425;DHT22;8830;50.978;5.058;2022-10-16T16:42:01;17.40;99.90
17425;DHT22;8830;50.978;5.058;2022-10-16T16:45:12;17.30;99.90
17425;DHT22;8830;50.978;5.058;2022-10-16T16:48:00;17.20;99.90
17425;DHT22;8830;50.978;5.058;2022-10-16T16:50:28;17.20;99.90
17425;DHT22;8830;50.978;5.058;2022-10-16T16:53:05;17.20;99.90
17425;DHT22;8830;50.978;5.058;2022-10-16T16:55:38;17.10;99.90
17425;DHT22;8830;50.978;5.058;2022-10-16T16:58:07;17.20;99.90
17425;DHT22;8830;50.978;5.058;2022-10-16T17:00:35;15.60;99.90
17425;DHT22;8830;50.978;5.058;2022-10-16T17:03:13;17.20;99.90
17425;DHT22;8830;50.978;5.058;2022-10-16T17:05:42;17.20;99.90
17425;DHT22;8830;50.978;5.058;2022-10-16T17:08:09;17.10;99.90
17425;DHT22;8830;50.978;5.058;2022-10-16T17:10:43;17.10;99.90
17425;DHT22;8830;50.978;5.058;2022-10-16T17:13:21;17.00;99.90
17425;DHT22;8830;50.978;5.058;2022-10-16T17:15:51;17.00;99.90
17425;DHT22;8830;50.978;5.058;2022-10-16T17:18:24;17.00;99.90
17425;DHT22;8830;50.978;5.058;2022-10-16T17:20:59;16.90;99.90
17425;DHT22;8830;50.978;5.058;2022-10-16T17:23:26;16.90;99.90
17425;DHT22;8830;50.978;5.058;2022-10-16T17:26:03;16.90;99.90
17425;DHT22;8830;50.978;5.058;2022-10-16T17:28:32;16.90;99.90
17425;DHT22;8830;50.978;5.058;2022-10-16T17:31:12;16.80;99.90
17425;DHT22;8830;50.978;5.058;2022-10-16T17:33:45;16.90;99.90
17425;DHT22;8830;50.978;5.058;2022-10-16T17:36:26;16.90;99.90
17425;DHT22;8830;50.978;5.058;2022-10-16T17:38:57;16.90;99.90
17425;DHT22;8830;50.978;5.058;2022-10-16T17:41:31;16.90;99.90
17425;DHT22;8830;50.978;5.058;2022-10-16T17:44:04;16.90;99.90
17425;DHT22;8830;50.978;5.058;2022-10-16T17:46:32;16.90;99.90
17425;DHT22;8830;50.978;5.058;2022-10-16T17:49:01;16.70;99.90
17425;DHT22;8830;50.978;5.058;2022-10-16T17:51:30;16.70;99.90
17425;DHT22;8830;50.978;5.058;2022-10-16T17:53:59;16.60;99.90
17425;DHT22;8830;50.978;5.058;2022-10-16T17:56:27;16.60;99.90
17425;DHT22;8830;50.978;5.058;2022-10-16T17:58:56;16.60;99.90
17425;DHT22;8830;50.978;5.058;2022-10-16T18:01:25;16.50;99.90
17425;DHT22;8830;50.978;5.058;2022-10-16T18:03:54;16.50;99.90
17425;DHT22;8830;50.978;5.058;2022-10-16T18:06:23;16.50;99.90
17425;DHT22;8830;50.978;5.058;2022-10-16T18:08:51;16.40;99.90
17425;DHT22;8830;50.978;5.058;2022-10-16T18:11:19;16.40;99.90
17425;DHT22;8830;50.978;5.058;2022-10-16T18:13:53;16.40;99.90
17425;DHT22;8830;50.978;5.058;2022-10-16T18:16:20;16.30;99.90
17425;DHT22;8830;50.978;5.058;2022-10-16T18:18:48;16.30;99.90
17425;DHT22;8830;50.978;5.058;2022-10-16T18:21:16;16.30;99.90
17425;DHT22;8830;50.978;5.058;2022-10-16T18:23:45;16.30;99.90
17425;DHT22;8830;50.978;5.058;2022-10-16T18:26:14;16.20;99.90
17425;DHT22;8830;50.978;5.058;2022-10-16T18:28:42;16.10;99.90
17425;DHT22;8830;50.978;5.058;2022-10-16T18:31:12;16.10;99.90
17425;DHT22;8830;50.978;5.058;2022-10-16T18:33:40;16.10;99.90
17425;DHT22;8830;50.978;5.058;2022-10-16T18:36:13;16.10;99.90
17425;DHT22;8830;50.978;5.058;2022-10-16T18:38:40;16.00;99.90
17425;DHT22;8830;50.978;5.058;2022-10-16T18:41:09;16.00;99.90
17425;DHT22;8830;50.978;5.058;2022-10-16T18:43:37;15.90;99.90
17425;DHT22;8830;50.978;5.058;2022-10-16T18:46:06;15.90;99.90
17425;DHT22;8830;50.978;5.058;2022-10-16T18:48:33;15.90;99.90
17425;DHT22;8830;50.978;5.058;2022-10-16T18:51:10;15.90;99.90
17425;DHT22;8830;50.978;5.058;2022-10-16T18:53:37;15.90;99.90
17425;DHT22;8830;50.978;5.058;2022-10-16T18:56:05;15.80;99.90
17425;DHT22;8830;50.978;5.058;2022-10-16T18:58:34;15.80;99.90
17425;DHT22;8830;50.978;5.058;2022-10-16T19:01:05;15.80;99.90
17425;DHT22;8830;50.978;5.058;2022-10-16T19:03:33;15.80;99.90
17425;DHT22;8830;50.978;5.058;2022-10-16T19:06:02;15.70;99.90
17425;DHT22;8830;50.978;5.058;2022-10-16T19:08:30;15.70;99.90
17425;DHT22;8830;50.978;5.058;2022-10-16T19:11:02;15.70;99.90
17425;DHT22;8830;50.978;5.058;2022-10-16T19:13:29;15.70;99.90
17425;DHT22;8830;50.978;5.058;2022-10-16T19:15:57;15.80;99.90
17425;DHT22;8830;50.978;5.058;2022-10-16T19:18:26;15.80;99.90
17425;DHT22;8830;50.978;5.058;2022-10-16T19:20:53;15.80;99.90
17425;DHT22;8830;50.978;5.058;2022-10-16T19:23:21;15.80;99.90
17425;DHT22;8830;50.978;5.058;2022-10-16T19:25:50;15.80;99.90
17425;DHT22;8830;50.978;5.058;2022-10-16T19:28:17;15.80;99.90
17425;DHT22;8830;50.978;5.058;2022-10-16T19:30:44;15.80;99.90
17425;DHT22;8830;50.978;5.058;2022-10-16T19:33:14;15.80;99.90
17425;DHT22;8830;50.978;5.058;2022-10-16T19:35:41;15.80;99.90
17425;DHT22;8830;50.978;5.058;2022-10-16T19:38:09;15.80;99.90
17425;DHT22;8830;50.978;5.058;2022-10-16T19:40:36;15.80;99.90
17425;DHT22;8830;50.978;5.058;2022-10-16T19:43:05;15.70;99.90
17425;DHT22;8830;50.978;5.058;2022-10-16T19:45:33;15.70;99.90
17425;DHT22;8830;50.978;5.058;2022-10-16T19:48:01;16.40;99.90
17425;DHT22;8830;50.978;5.058;2022-10-16T19:50:30;15.60;99.90
17425;DHT22;8830;50.978;5.058;2022-10-16T19:52:58;15.60;99.90
17425;DHT22;8830;50.978;5.058;2022-10-16T19:55:25;15.60;99.90
17425;DHT22;8830;50.978;5.058;2022-10-16T19:57:52;15.60;99.90
17425;DHT22;8830;50.978;5.058;2022-10-16T20:00:19;15.40;99.90
17425;DHT22;8830;50.978;5.058;2022-10-16T20:02:46;15.50;99.90
17425;DHT22;8830;50.978;5.058;2022-10-16T20:05:13;15.50;99.90
17425;DHT22;8830;50.978;5.058;2022-10-16T20:07:41;15.40;99.90
17425;DHT22;8830;50.978;5.058;2022-10-16T20:10:08;15.40;99.90
17425;DHT22;8830;50.978;5.058;2022-10-16T20:12:35;15.40;99.90
17425;DHT22;8830;50.978;5.058;2022-10-16T20:15:04;15.30;99.90
17425;DHT22;8830;50.978;5.058;2022-10-16T20:17:32;15.30;99.90
17425;DHT22;8830;50.978;5.058;2022-10-16T20:19:59;15.30;99.90
17425;DHT22;8830;50.978;5.058;2022-10-16T20:22:26;15.40;99.90
17425;DHT22;8830;50.978;5.058;2022-10-16T20:24:55;15.40;99.90
17425;DHT22;8830;50.978;5.058;2022-10-16T20:27:22;15.40;99.90
17425;DHT22;8830;50.978;5.058;2022-10-16T20:29:49;15.40;99.90
17425;DHT22;8830;50.978;5.058;2022-10-16T20:32:17;15.40;99.90
17425;DHT22;8830;50.978;5.058;2022-10-16T20:34:44;15.40;99.90
17425;DHT22;8830;50.978;5.058;2022-10-16T20:37:13;15.40;99.90
17425;DHT22;8830;50.978;5.058;2022-10-16T20:39:40;15.50;99.90
17425;DHT22;8830;50.978;5.058;2022-10-16T20:42:09;15.50;99.90
17425;DHT22;8830;50.978;5.058;2022-10-16T20:44:36;15.50;99.90
17425;DHT22;8830;50.978;5.058;2022-10-16T20:47:03;15.40;99.90
17425;DHT22;8830;50.978;5.058;2022-10-16T20:49:30;15.30;99.90
17425;DHT22;8830;50.978;5.058;2022-10-16T20:51:57;15.30;99.90
17425;DHT22;8830;50.978;5.058;2022-10-16T20:54:24;15.30;99.90
17425;DHT22;8830;50.978;5.058;2022-10-16T20:56:51;15.20;99.90
17425;DHT22;8830;50.978;5.058;2022-10-16T20:59:19;15.20;99.90
17425;DHT22;8830;50.978;5.058;2022-10-16T21:01:46;15.20;99.90
17425;DHT22;8830;50.978;5.058;2022-10-16T21:04:13;15.20;99.90
17425;DHT22;8830;50.978;5.058;2022-10-16T21:06:40;15.10;99.90
17425;DHT22;8830;50.978;5.058;2022-10-16T21:09:07;15.00;99.90
17425;DHT22;8830;50.978;5.058;2022-10-16T21:11:36;15.00;99.90
17425;DHT22;8830;50.978;5.058;2022-10-16T21:14:06;14.90;99.90
17425;DHT22;8830;50.978;5.058;2022-10-16T21:16:34;14.90;99.90
17425;DHT22;8830;50.978;5.058;2022-10-16T21:19:02;14.90;99.90
17425;DHT22;8830;50.978;5.058;2022-10-16T21:21:31;14.80;99.90
17425;DHT22;8830;50.978;5.058;2022-10-16T21:23:58;14.80;99.90
17425;DHT22;8830;50.978;5.058;2022-10-16T21:26:27;14.80;99.90
17425;DHT22;8830;50.978;5.058;2022-10-16T21:28:56;14.70;99.90
17425;DHT22;8830;50.978;5.058;2022-10-16T21:31:23;14.70;99.90
17425;DHT22;8830;50.978;5.058;2022-10-16T21:33:56;16.00;99.90
17425;DHT22;8830;50.978;5.058;2022-10-16T21:36:34;14.70;99.90
17425;DHT22;8830;50.978;5.058;2022-10-16T21:39:02;14.60;99.90
17425;DHT22;8830;50.978;5.058;2022-10-16T21:41:29;14.60;99.90
17425;DHT22;8830;50.978;5.058;2022-10-16T21:43:57;14.70;99.90
17425;DHT22;8830;50.978;5.058;2022-10-16T21:46:26;14.50;99.90
17425;DHT22;8830;50.978;5.058;2022-10-16T21:48:55;14.50;99.90
17425;DHT22;8830;50.978;5.058;2022-10-16T21:51:25;14.50;99.90
17425;DHT22;8830;50.978;5.058;2022-10-16T21:53:52;14.50;99.90
17425;DHT22;8830;50.978;5.058;2022-10-16T21:56:19;14.60;99.90
17425;DHT22;8830;50.978;5.058;2022-10-16T21:58:47;14.60;99.90
17425;DHT22;8830;50.978;5.058;2022-10-16T22:01:16;14.60;99.90
17425;DHT22;8830;50.978;5.058;2022-10-16T22:03:44;14.70;99.90
17425;DHT22;8830;50.978;5.058;2022-10-16T22:06:15;14.70;99.90
17425;DHT22;8830;50.978;5.058;2022-10-16T22:08:44;14.70;99.90
17425;DHT22;8830;50.978;5.058;2022-10-16T22:11:14;14.70;99.90
17425;DHT22;8830;50.978;5.058;2022-10-16T22:13:42;14.70;99.90
17425;DHT22;8830;50.978;5.058;2022-10-16T22:16:09;14.70;99.90
17425;DHT22;8830;50.978;5.058;2022-10-16T22:18:37;14.70;99.90
17425;DHT22;8830;50.978;5.058;2022-10-16T22:21:06;14.70;99.90
17425;DHT22;8830;50.978;5.058;2022-10-16T22:23:36;14.60;99.90
17425;DHT22;8830;50.978;5.058;2022-10-16T22:26:06;14.60;99.90
17425;DHT22;8830;50.978;5.058;2022-10-16T22:28:33;14.70;99.90
17425;DHT22;8830;50.978;5.058;2022-10-16T22:31:01;14.70;99.90
17425;DHT22;8830;50.978;5.058;2022-10-16T22:33:29;14.70;99.90
17425;DHT22;8830;50.978;5.058;2022-10-16T22:35:59;14.80;99.90
17425;DHT22;8830;50.978;5.058;2022-10-16T22:38:27;14.70;99.90
17425;DHT22;8830;50.978;5.058;2022-10-16T22:41:00;14.70;99.90
17425;DHT22;8830;50.978;5.058;2022-10-16T22:43:27;14.70;99.90
17425;DHT22;8830;50.978;5.058;2022-10-16T22:45:54;14.60;99.90
17425;DHT22;8830;50.978;5.058;2022-10-16T22:48:21;14.70;99.90
17425;DHT22;8830;50.978;5.058;2022-10-16T22:50:48;14.70;99.90
17425;DHT22;8830;50.978;5.058;2022-10-16T22:53:15;14.70;99.90
17425;DHT22;8830;50.978;5.058;2022-10-16T22:55:43;14.70;99.90
17425;DHT22;8830;50.978;5.058;2022-10-16T22:58:11;14.70;99.90
17425;DHT22;8830;50.978;5.058;2022-10-16T23:00:40;14.70;99.90
17425;DHT22;8830;50.978;5.058;2022-10-16T23:03:07;14.60;99.90
17425;DHT22;8830;50.978;5.058;2022-10-16T23:05:37;14.70;99.90
17425;DHT22;8830;50.978;5.058;2022-10-16T23:08:04;14.60;99.90
17425;DHT22;8830;50.978;5.058;2022-10-16T23:10:32;14.60;99.90
17425;DHT22;8830;50.978;5.058;2022-10-16T23:13:00;14.60;99.90
17425;DHT22;8830;50.978;5.058;2022-10-16T23:15:29;14.60;99.90
17425;DHT22;8830;50.978;5.058;2022-10-16T23:17:56;14.60;99.90
17425;DHT22;8830;50.978;5.058;2022-10-16T23:20:23;14.60;99.90
17425;DHT22;8830;50.978;5.058;2022-10-16T23:22:50;14.70;99.90
17425;DHT22;8830;50.978;5.058;2022-10-16T23:25:17;14.60;99.90
17425;DHT22;8830;50.978;5.058;2022-10-16T23:27:44;14.60;99.90
17425;DHT22;8830;50.978;5.058;2022-10-16T23:30:11;14.60;99.90
17425;DHT22;8830;50.978;5.058;2022-10-16T23:32:39;14.60;99.90
17425;DHT22;8830;50.978;5.058;2022-10-16T23:35:08;14.60;99.90
17425;DHT22;8830;50.978;5.058;2022-10-16T23:37:35;14.60;99.90
17425;DHT22;8830;50.978;5.058;2022-10-16T23:40:03;14.60;99.90
17425;DHT22;8830;50.978;5.058;2022-10-16T23:42:30;14.60;99.90
17425;DHT22;8830;50.978;5.058;2022-10-16T23:44:57;14.60;99.90
17425;DHT22;8830;50.978;5.058;2022-10-16T23:47:24;14.60;99.90
17425;DHT22;8830;50.978;5.058;2022-10-16T23:49:52;14.60;99.90
17425;DHT22;8830;50.978;5.058;2022-10-16T23:52:19;14.60;99.90
17425;DHT22;8830;50.978;5.058;2022-10-16T23:54:46;14.60;99.90
17425;DHT22;8830;50.978;5.058;2022-10-16T23:57:13;14.60;99.90
17425;DHT22;8830;50.978;5.058;2022-10-16T23:59:40;14.50;99.90
